Time;durP1;ratioP1;P1;durP2;ratioP2;P2;SDS_P1;SDS_P2;PMS_P1;PMS_P2;Temp;Humidity;BMP_temperature;BMP_pressure;BME280_temperature;BME280_humidity;BME280_pressure;Samples;Min_cycle;Max_cycle;Signal;HPM_P1;HPM_P2
2023/05/02 00:00:12;;;;;;;12.03;11.23;;;;;;;11.20;82.52;93150.94;5069818;28;20225;-72
2023/05/02 00:02:37;;;;;;;12.00;11.30;;;;;;;11.20;82.34;93138.66;5069463;28;20204;-72
2023/05/02 00:05:04;;;;;;;12.87;11.63;;;;;;;11.33;81.04;93142.53;5070455;28;20289;-72
2023/05/02 00:07:29;;;;;;;13.17;12.30;;;;;;;11.30;80.41;93135.19;5070004;28;20214;-72
2023/05/02 00:09:55;;;;;;;12.90;12.00;;;;;;;11.37;80.64;93135.69;5069829;28;20220;-72
2023/05/02 00:12:20;;;;;;;11.97;11.17;;;;;;;11.38;81.40;93133.88;5070075;28;20189;-72
2023/05/02 00:14:45;;;;;;;11.73;11.03;;;;;;;11.32;81.43;93141.72;5068874;28;20304;-72
2023/05/02 00:17:20;;;;;;;12.10;11.37;;;;;;;11.29;81.44;93142.28;5070176;28;20180;-72
2023/05/02 00:19:46;;;;;;;11.37;10.67;;;;;;;11.31;81.21;93127.09;5069874;28;20251;-72
2023/05/02 00:22:11;;;;;;;13.00;12.07;;;;;;;11.45;80.56;93152.63;5069658;28;20181;-72
2023/05/02 00:24:37;;;;;;;12.30;11.47;;;;;;;11.38;81.13;93152.16;5069392;28;20229;-72
2023/05/02 00:27:03;;;;;;;12.40;11.50;;;;;;;11.37;81.73;93148.75;5069750;28;20228;-72
2023/05/02 00:29:29;;;;;;;12.27;11.47;;;;;;;11.33;81.33;93153.75;5069407;28;20191;-72
2023/05/02 00:31:54;;;;;;;12.20;11.23;;;;;;;11.28;82.07;93153.75;5069650;28;20205;-72
2023/05/02 00:34:20;;;;;;;12.07;11.37;;;;;;;11.18;81.85;93150.41;5069626;28;20256;-69
2023/05/02 00:36:45;;;;;;;12.83;12.00;;;;;;;11.26;81.20;93150.66;5069963;28;21623;-69
2023/05/02 00:39:10;;;;;;;13.03;12.30;;;;;;;11.36;81.53;93149.81;5070030;28;20219;-68
2023/05/02 00:41:36;;;;;;;11.57;10.87;;;;;;;10.81;81.43;93080.31;5069217;28;20218;-69
2023/05/02 00:44:01;;;;;;;11.03;10.33;;;;;;;11.42;80.53;93155.78;5069990;28;20220;-68
2023/05/02 00:46:27;;;;;;;12.23;11.47;;;;;;;11.35;80.52;93143.03;5069053;28;20225;-69
2023/05/02 00:48:52;;;;;;;11.93;11.17;;;;;;;11.39;81.01;93163.13;5056850;28;20239;-70
2023/05/02 00:51:18;;;;;;;12.27;11.37;;;;;;;11.22;80.59;93141.00;5069284;28;20221;-68
2023/05/02 00:53:44;;;;;;;11.87;11.17;;;;;;;11.33;80.94;93151.13;5069666;28;20254;-69
2023/05/02 00:56:10;;;;;;;11.93;11.20;;;;;;;11.47;80.46;93159.16;5069270;28;20223;-68
2023/05/02 00:58:39;;;;;;;12.03;11.33;;;;;;;11.49;80.01;93154.44;5069628;28;20201;-71
2023/05/02 01:01:42;;;;;;;12.23;11.43;;;;;;;11.38;80.92;93152.16;5069037;28;20233;-72
2023/05/02 01:04:51;;;;;;;12.37;11.57;;;;;;;11.44;80.03;93146.63;5069338;28;20229;-72
2023/05/02 01:07:48;;;;;;;11.43;10.83;;;;;;;11.46;79.98;93143.72;5028133;28;21023;-72
2023/05/02 01:10:36;;;;;;;11.80;11.00;;;;;;;11.59;78.86;93148.38;5023251;28;20217;-72
2023/05/02 01:13:11;;;;;;;11.57;10.87;;;;;;;11.56;78.88;93139.25;5071327;28;20467;-72
2023/05/02 01:15:38;;;;;;;12.87;12.00;;;;;;;11.54;79.28;93141.34;5072333;28;20238;-72
2023/05/02 01:18:05;;;;;;;11.70;11.00;;;;;;;11.45;78.74;93126.50;5073531;28;20187;-72
2023/05/02 01:20:37;;;;;;;13.07;12.37;;;;;;;11.61;78.50;93135.81;5072371;28;20227;-72
2023/05/02 01:23:09;;;;;;;12.57;11.70;;;;;;;11.57;78.13;93129.56;5073354;28;20275;-73
2023/05/02 01:25:43;;;;;;;11.63;10.93;;;;;;;11.65;78.30;93131.63;5072834;28;20217;-72
2023/05/02 01:28:18;;;;;;;11.30;10.70;;;;;;;11.57;78.20;93127.72;5073228;28;20193;-72
2023/05/02 01:30:46;;;;;;;12.30;11.50;;;;;;;11.47;78.03;93113.94;5072369;28;20234;-72
2023/05/02 01:33:15;;;;;;;11.83;10.93;;;;;;;11.45;79.26;93122.06;5073302;28;20225;-72
2023/05/02 01:35:43;;;;;;;12.50;11.70;;;;;;;11.53;78.55;93134.56;5072192;28;20220;-73
2023/05/02 01:38:13;;;;;;;13.00;12.00;;;;;;;11.45;79.45;93137.75;5072789;28;20185;-72
2023/05/02 01:40:41;;;;;;;11.27;10.57;;;;;;;11.36;79.47;93128.91;5072463;28;20255;-71
2023/05/02 01:43:08;;;;;;;12.57;11.87;;;;;;;11.57;78.22;93137.41;5072767;28;20191;-72
2023/05/02 01:45:36;;;;;;;12.57;11.87;;;;;;;11.53;78.58;93134.56;5072386;28;20244;-72
2023/05/02 01:48:05;;;;;;;12.03;11.33;;;;;;;11.65;78.54;93134.25;5073409;28;20209;-72
2023/05/02 01:50:30;;;;;;;13.17;12.37;;;;;;;11.49;79.00;93122.31;5071905;28;20252;-72
2023/05/02 01:52:57;;;;;;;12.83;12.10;;;;;;;11.49;79.15;93127.53;5072754;28;20182;-72
2023/05/02 01:55:24;;;;;;;12.40;11.53;;;;;;;11.59;79.00;93137.91;5072366;28;20235;-74
2023/05/02 01:57:52;;;;;;;12.30;11.40;;;;;;;11.49;79.49;93117.06;5072659;28;20187;-72
2023/05/02 02:00:19;;;;;;;11.70;10.80;;;;;;;11.52;78.98;93125.13;5072064;28;20289;-73
2023/05/02 02:02:47;;;;;;;12.20;11.37;;;;;;;11.68;78.46;93133.69;5072254;28;20219;-72
2023/05/02 02:05:13;;;;;;;11.87;11.03;;;;;;;11.57;78.26;93124.31;5072172;28;20237;-72
2023/05/02 02:07:39;;;;;;;11.90;11.17;;;;;;;11.53;78.28;93112.84;5072389;28;20234;-72
2023/05/02 02:10:05;;;;;;;12.57;11.87;;;;;;;11.58;78.83;93123.28;5072052;28;20224;-72
2023/05/02 02:12:53;;;;;;;12.57;11.77;;;;;;;11.59;77.92;93124.84;5072056;28;20196;-72
2023/05/02 02:15:26;;;;;;;12.30;11.40;;;;;;;11.59;77.30;93112.56;5058308;28;20307;-73
2023/05/02 02:18:12;;;;;;;12.03;11.23;;;;;;;11.65;77.13;93108.88;5071026;28;20191;-72
2023/05/02 02:20:41;;;;;;;11.83;10.87;;;;;;;11.67;77.05;93111.22;5068970;28;20224;-72
2023/05/02 02:23:08;;;;;;;12.17;11.27;;;;;;;11.78;76.28;93125.78;5072062;28;20184;-72
2023/05/02 02:25:34;;;;;;;12.63;11.83;;;;;;;11.71;76.65;93112.22;5070451;28;20228;-72
2023/05/02 02:28:00;;;;;;;11.33;10.53;;;;;;;11.79;76.86;93117.69;5071991;28;20237;-72
2023/05/02 02:30:26;;;;;;;10.60;10.00;;;;;;;11.70;77.07;93129.78;5071380;28;20237;-72
2023/05/02 02:32:51;;;;;;;11.67;10.97;;;;;;;11.58;78.14;93123.28;5072313;28;20220;-72
2023/05/02 02:35:17;;;;;;;11.10;10.50;;;;;;;11.49;78.23;93122.31;5071350;28;20234;-73
2023/05/02 02:38:04;;;;;;;11.30;10.70;;;;;;;11.51;78.06;93120.19;5072015;28;20189;-72
2023/05/02 02:40:36;;;;;;;14.43;11.07;;;;;;;11.48;78.08;93115.50;5070595;28;20697;-72
2023/05/02 02:43:05;;;;;;;12.77;11.63;;;;;;;11.54;77.95;93119.63;5071862;28;20195;-73
2023/05/02 02:45:45;;;;;;;12.47;11.67;;;;;;;11.53;78.02;93125.94;5071076;28;20234;-72
2023/05/02 02:48:29;;;;;;;13.07;11.73;;;;;;;11.54;77.86;93127.47;5071668;28;20188;-72
2023/05/02 02:51:11;;;;;;;11.43;10.63;;;;;;;11.49;77.99;93127.53;5058896;28;20293;-72
2023/05/02 02:53:59;;;;;;;13.60;12.67;;;;;;;11.56;77.97;93128.78;5071537;28;20201;-72
2023/05/02 02:56:39;;;;;;;12.13;11.33;;;;;;;11.38;78.13;93109.28;5053475;28;20227;-72
2023/05/02 02:59:17;;;;;;;12.43;11.70;;;;;;;11.56;77.81;93133.22;5071844;28;20244;-72
2023/05/02 03:01:48;;;;;;;12.03;11.33;;;;;;;11.31;79.07;93142.75;5070944;28;20205;-72
2023/05/02 03:04:17;;;;;;;13.47;12.40;;;;;;;11.02;80.63;93144.47;5056011;28;20201;-72
2023/05/02 03:06:43;;;;;;;13.23;12.00;;;;;;;10.97;79.97;93139.25;5061241;28;20293;-72
2023/05/02 03:09:17;;;;;;;11.63;10.73;;;;;;;10.93;80.51;93155.75;5071571;28;20198;-72
2023/05/02 03:11:45;;;;;;;12.43;11.70;;;;;;;10.78;82.16;93148.75;5071177;28;20282;-72
2023/05/02 03:14:10;;;;;;;12.80;11.90;;;;;;;10.66;82.61;93152.72;5071243;28;20212;-72
2023/05/02 03:16:37;;;;;;;13.50;12.60;;;;;;;10.77;82.79;93173.28;5070772;28;20265;-72
2023/05/02 03:19:04;;;;;;;12.23;11.37;;;;;;;10.71;83.80;93169.13;5070871;28;20194;-72
2023/05/02 03:21:33;;;;;;;13.70;12.63;;;;;;;10.60;84.15;93166.81;5053769;28;20222;-72
2023/05/02 03:24:03;;;;;;;14.13;12.70;;;;;;;10.63;84.78;93172.28;5052969;28;20209;-72
2023/05/02 03:26:28;;;;;;;13.83;12.83;;;;;;;10.43;85.83;93161.88;5070221;28;20237;-72
2023/05/02 03:28:55;;;;;;;13.50;12.50;;;;;;;10.34;86.22;93158.25;5071028;28;20248;-72
2023/05/02 03:31:21;;;;;;;12.43;11.73;;;;;;;10.59;85.47;93170.47;5070465;28;20216;-72
2023/05/02 03:33:47;;;;;;;12.27;11.47;;;;;;;10.71;84.61;93173.56;5070799;28;20272;-73
2023/05/02 03:36:13;;;;;;;14.10;12.90;;;;;;;10.56;85.59;93163.94;5070353;28;20224;-72
2023/05/02 03:38:38;;;;;;;14.07;12.90;;;;;;;10.44;86.41;93168.69;5070248;28;20245;-72
2023/05/02 03:41:04;;;;;;;12.83;11.83;;;;;;;10.48;86.60;93163.69;5070513;28;20214;-72
2023/05/02 03:43:30;;;;;;;12.67;11.77;;;;;;;10.52;86.35;93164.75;5070624;28;20231;-70
2023/05/02 03:45:57;;;;;;;13.10;12.20;;;;;;;10.69;85.53;93171.22;5048105;28;20204;-73
2023/05/02 03:48:22;;;;;;;13.47;12.47;;;;;;;10.55;86.57;93172.06;5068065;28;20249;-72
2023/05/02 03:50:49;;;;;;;13.80;12.80;;;;;;;10.67;85.98;93162.09;5068833;28;20217;-73
2023/05/02 03:53:15;;;;;;;13.20;12.20;;;;;;;10.97;85.68;93162.78;5069284;28;20206;-73
2023/05/02 03:55:41;;;;;;;13.17;12.27;;;;;;;11.12;85.33;93177.63;5068762;28;20225;-69
2023/05/02 03:58:09;;;;;;;14.93;13.83;;;;;;;11.26;84.78;93171.56;5068913;28;20197;-72
2023/05/02 04:00:35;;;;;;;14.43;13.43;;;;;;;11.28;84.52;93171.28;5068670;28;20229;-71
2023/05/02 04:03:01;;;;;;;13.00;12.00;;;;;;;11.38;84.27;93162.63;5069128;28;20204;-71
2023/05/02 04:05:26;;;;;;;13.57;12.40;;;;;;;11.33;84.46;93172.03;5076558;28;20232;-71
2023/05/02 04:07:51;;;;;;;14.13;13.00;;;;;;;11.44;84.50;93182.47;5069854;28;20717;-71
2023/05/02 04:10:17;;;;;;;14.10;13.13;;;;;;;11.35;85.20;93177.78;5068717;28;20215;-68
2023/05/02 04:12:43;;;;;;;14.77;13.50;;;;;;;11.33;85.27;93172.03;5069096;28;20191;-67
2023/05/02 04:15:09;;;;;;;13.90;12.73;;;;;;;11.30;85.25;93179.63;5069624;28;20311;-68
2023/05/02 04:17:35;;;;;;;14.20;13.27;;;;;;;11.36;85.48;93168.88;5052080;28;20195;-69
2023/05/02 04:20:01;;;;;;;13.37;12.47;;;;;;;11.48;84.95;93179.03;5069760;28;20217;-69
2023/05/02 04:22:26;;;;;;;13.70;12.80;;;;;;;11.56;84.55;93180.31;5069790;28;20193;-69
2023/05/02 04:24:52;;;;;;;13.47;12.40;;;;;;;11.47;85.10;93182.69;5069548;28;20237;-69
2023/05/02 04:27:18;;;;;;;14.83;13.73;;;;;;;11.42;85.28;93169.66;5069806;28;20233;-68
2023/05/02 04:29:46;;;;;;;13.03;12.13;;;;;;;11.55;84.89;93183.97;5069084;28;20258;-75
2023/05/02 04:32:12;;;;;;;12.60;11.77;;;;;;;11.67;84.91;93187.88;5069964;28;20185;-76
2023/05/02 04:34:37;;;;;;;13.73;12.73;;;;;;;11.77;84.27;93182.56;5068278;28;20227;-75
2023/05/02 04:37:03;;;;;;;13.53;12.53;;;;;;;11.64;84.21;93174.53;5052061;28;20192;-75
2023/05/02 04:39:28;;;;;;;11.90;11.10;;;;;;;11.82;83.96;93186.97;5052331;28;20177;-75
2023/05/02 04:41:53;;;;;;;14.57;13.37;;;;;;;11.58;84.13;93158.03;5069899;28;20192;-75
2023/05/02 04:44:19;;;;;;;14.33;13.03;;;;;;;11.67;83.90;93166.94;5069373;28;20312;-75
2023/05/02 04:46:44;;;;;;;13.93;12.97;;;;;;;11.81;84.15;93182.81;5069510;28;20190;-75
2023/05/02 04:49:10;;;;;;;13.33;12.33;;;;;;;11.86;83.44;93177.53;5069732;28;20190;-75
2023/05/02 04:51:35;;;;;;;12.73;11.83;;;;;;;11.84;83.00;93162.13;5068287;28;20220;-75
2023/05/02 04:54:01;;;;;;;13.30;12.20;;;;;;;12.00;82.48;93183.72;5070064;28;20218;-75
2023/05/02 04:56:27;;;;;;;13.73;12.67;;;;;;;12.16;81.56;93190.38;5050678;28;20279;-75
2023/05/02 04:58:52;;;;;;;13.73;12.67;;;;;;;12.28;80.90;93193.47;5068713;28;20202;-75
2023/05/02 05:01:18;;;;;;;13.57;12.37;;;;;;;12.34;80.35;93194.97;5068156;28;20242;-75
2023/05/02 05:03:43;;;;;;;12.17;11.40;;;;;;;12.29;80.00;93174.84;5068850;28;20189;-75
2023/05/02 05:06:09;;;;;;;13.70;12.47;;;;;;;12.38;78.85;93177.66;5068416;28;20955;-75
2023/05/02 05:08:34;;;;;;;13.87;12.73;;;;;;;12.43;78.03;93193.31;5068886;28;20185;-75
2023/05/02 05:11:00;;;;;;;12.30;11.50;;;;;;;12.46;78.08;93187.53;5069134;28;20213;-75
2023/05/02 05:13:27;;;;;;;11.97;11.17;;;;;;;12.58;77.44;93187.94;5069410;28;20189;-75
2023/05/02 05:15:52;;;;;;;11.70;11.00;;;;;;;12.60;77.40;93193.69;5068994;28;20288;-75
2023/05/02 05:18:18;;;;;;;11.20;10.57;;;;;;;12.85;76.01;93194.25;5069435;28;20208;-75
2023/05/02 05:20:43;;;;;;;12.70;11.87;;;;;;;12.79;75.69;93178.84;5068444;28;20239;-76
2023/05/02 05:23:09;;;;;;;11.80;11.00;;;;;;;13.13;74.93;93199.75;5069321;28;20185;-75
2023/05/02 05:25:34;;;;;;;11.90;11.03;;;;;;;13.38;73.44;93192.38;5068316;28;20237;-73
2023/05/02 05:28:00;;;;;;;12.47;11.70;;;;;;;13.42;73.24;93203.84;5067742;28;20229;-72
2023/05/02 05:30:26;;;;;;;11.53;10.73;;;;;;;14.35;70.46;93196.81;5063439;28;20244;-71
2023/05/02 05:32:52;;;;;;;12.87;11.87;;;;;;;15.52;65.87;93210.25;5068246;28;20178;-71
2023/05/02 05:35:17;;;;;;;12.57;11.60;;;;;;;17.43;59.12;93221.63;5067128;28;20244;-72
2023/05/02 05:37:43;;;;;;;11.63;10.80;;;;;;;17.78;56.17;93227.81;5067893;28;20186;-72
2023/05/02 05:40:09;;;;;;;11.10;10.33;;;;;;;19.81;50.56;93230.59;5067454;28;21053;-73
2023/05/02 05:42:35;;;;;;;11.60;10.87;;;;;;;20.51;47.50;93223.44;5067837;28;20190;-70
2023/05/02 05:45:00;;;;;;;10.27;9.57;;;;;;;21.35;44.52;93225.66;5067691;28;20309;-71
2023/05/02 05:47:25;;;;;;;11.40;10.80;;;;;;;23.52;39.38;93234.03;5050499;28;20215;-72
2023/05/02 05:49:52;;;;;;;10.47;9.73;;;;;;;23.47;38.47;93244.94;5067835;28;20239;-73
2023/05/02 05:52:18;;;;;;;10.27;9.03;;;;;;;24.16;37.72;93248.91;5068149;28;20222;-73
2023/05/02 05:54:43;;;;;;;11.03;10.33;;;;;;;24.86;35.23;93223.78;5067507;28;20221;-72
2023/05/02 05:57:09;;;;;;;9.15;8.45;;;;;;;23.66;37.59;93247.72;5068533;28;20189;-73
2023/05/02 05:59:35;;;;;;;9.63;9.10;;;;;;;23.86;36.98;93250.47;5068612;28;20237;-72
2023/05/02 06:02:00;;;;;;;10.38;9.68;;;;;;;23.71;36.53;93250.13;5071595;28;20796;-71
2023/05/02 06:04:26;;;;;;;10.32;9.70;;;;;;;25.07;35.06;93245.59;5070719;28;20211;-72
2023/05/02 06:06:53;;;;;;;10.20;9.50;;;;;;;24.41;35.46;93247.59;5067990;28;20195;-72
2023/05/02 06:09:18;;;;;;;10.00;9.35;;;;;;;23.71;36.39;93247.47;5070059;28;20199;-72
2023/05/02 06:11:44;;;;;;;9.40;8.90;;;;;;;23.00;37.29;93241.38;5072406;28;20190;-72
2023/05/02 06:14:09;;;;;;;9.57;9.07;;;;;;;23.42;36.71;93249.75;5053878;28;20183;-72
2023/05/02 06:16:35;;;;;;;9.60;9.00;;;;;;;23.82;35.89;93254.94;5071424;28;20226;-71
2023/05/02 06:19:00;;;;;;;9.38;8.77;;;;;;;24.80;33.95;93254.56;5072250;28;20193;-73
2023/05/02 06:21:26;;;;;;;10.52;9.73;;;;;;;20.42;41.32;93232.59;5071389;28;20229;-72
2023/05/02 06:23:51;;;;;;;9.53;8.87;;;;;;;18.12;48.40;93238.44;5072011;28;20269;-73
2023/05/02 06:26:17;;;;;;;10.23;9.50;;;;;;;16.98;52.89;93223.56;5070827;28;20222;-72
2023/05/02 06:28:43;;;;;;;10.30;9.70;;;;;;;15.63;57.62;93224.78;5072218;28;20194;-72
2023/05/02 06:31:09;;;;;;;10.60;10.00;;;;;;;15.64;59.04;93223.69;5072007;28;20317;-73
2023/05/02 06:33:35;;;;;;;11.23;10.43;;;;;;;15.70;57.98;93233.03;5071632;28;20196;-73
2023/05/02 06:36:01;;;;;;;10.83;10.20;;;;;;;15.46;59.42;93219.31;5071662;28;20304;-72
2023/05/02 06:38:27;;;;;;;14.83;13.77;;;;;;;15.41;59.24;93229.94;5070052;28;20185;-73
2023/05/02 06:40:52;;;;;;;11.60;10.73;;;;;;;15.57;59.79;93223.31;5069719;28;20221;-72
2023/05/02 06:43:18;;;;;;;11.03;10.23;;;;;;;15.40;59.43;93212.59;5070428;28;20209;-73
2023/05/02 06:45:44;;;;;;;10.70;10.10;;;;;;;15.38;59.50;93217.38;5069909;28;20221;-72
2023/05/02 06:48:09;;;;;;;9.97;9.30;;;;;;;15.54;58.75;93215.22;5070452;28;20192;-73
2023/05/02 06:50:35;;;;;;;11.03;10.33;;;;;;;15.61;58.17;93224.28;5069736;28;20209;-73
2023/05/02 06:53:00;;;;;;;9.77;9.27;;;;;;;15.71;58.64;93218.81;5070012;28;20182;-73
2023/05/02 06:55:27;;;;;;;11.07;9.97;;;;;;;15.56;58.27;93208.63;5069404;28;20233;-74
2023/05/02 06:57:53;;;;;;;10.47;9.77;;;;;;;15.55;58.88;93216.78;5070177;28;20181;-73
2023/05/02 07:00:19;;;;;;;10.43;9.80;;;;;;;15.33;58.97;93203.53;5069621;28;21035;-73
2023/05/02 07:02:46;;;;;;;11.63;10.83;;;;;;;15.21;59.45;93211.09;5069854;28;20192;-73
2023/05/02 07:05:12;;;;;;;10.20;9.63;;;;;;;15.25;59.57;93199.69;5069294;28;20228;-72
2023/05/02 07:07:38;;;;;;;10.97;10.17;;;;;;;15.38;59.08;93217.38;5070379;28;20213;-72
2023/05/02 07:10:03;;;;;;;10.80;10.20;;;;;;;15.43;58.48;93213.88;5070971;28;20229;-73
2023/05/02 07:12:29;;;;;;;10.40;9.70;;;;;;;15.64;59.00;93223.69;5070074;28;20228;-73
2023/05/02 07:14:54;;;;;;;10.60;9.73;;;;;;;15.47;57.74;93191.16;5069315;28;20237;-72
2023/05/02 07:17:20;;;;;;;11.50;10.90;;;;;;;15.66;58.24;93228.66;5069923;28;20193;-72
2023/05/02 07:19:45;;;;;;;10.63;10.07;;;;;;;15.76;58.38;93215.31;5069516;28;20233;-73
2023/05/02 07:22:11;;;;;;;11.13;10.20;;;;;;;15.87;57.65;93222.72;5069859;28;20270;-72
2023/05/02 07:24:40;;;;;;;10.73;9.73;;;;;;;15.82;56.58;93235.19;5051375;28;20221;-73
2023/05/02 07:27:06;;;;;;;11.07;10.23;;;;;;;15.73;56.68;93216.69;5069271;28;20221;-73
2023/05/02 07:29:31;;;;;;;11.70;10.57;;;;;;;15.72;56.22;93214.34;5068942;28;20185;-73
2023/05/02 07:31:57;;;;;;;9.97;9.27;;;;;;;15.85;56.31;93234.59;5069395;28;20182;-72
2023/05/02 07:34:22;;;;;;;10.30;9.53;;;;;;;15.67;56.52;93231.00;5069115;28;20194;-72
2023/05/02 07:36:47;;;;;;;9.73;9.00;;;;;;;15.81;56.29;93223.09;5069923;28;20190;-72
2023/05/02 07:39:13;;;;;;;10.23;9.73;;;;;;;15.69;56.48;93209.66;5068688;28;20185;-73
2023/05/02 07:41:38;;;;;;;10.17;9.60;;;;;;;15.87;55.85;93225.34;5069071;28;20256;-73
2023/05/02 07:44:04;;;;;;;10.63;9.93;;;;;;;15.98;55.63;93233.81;5068459;28;20213;-73
2023/05/02 07:46:30;;;;;;;10.10;9.50;;;;;;;16.06;54.95;93227.84;5051122;28;20225;-72
2023/05/02 07:48:55;;;;;;;10.90;10.20;;;;;;;16.19;55.43;93240.19;5067227;28;20186;-71
2023/05/02 07:51:21;;;;;;;9.90;9.30;;;;;;;16.04;54.80;93227.34;5065697;28;20243;-72
2023/05/02 07:53:51;;;;;;;11.00;10.40;;;;;;;15.90;56.61;93231.88;5069265;28;20185;-72
2023/05/02 07:56:17;;;;;;;10.70;10.10;;;;;;;15.89;55.57;93225.06;5066067;28;20249;-72
2023/05/02 07:58:42;;;;;;;10.23;9.63;;;;;;;16.15;56.16;93235.81;5068995;28;20216;-72
2023/05/02 08:01:07;;;;;;;10.90;10.17;;;;;;;16.29;54.92;93234.69;5068733;28;20233;-73
2023/05/02 08:03:33;;;;;;;10.40;9.80;;;;;;;16.28;54.65;93238.41;5068968;28;20235;-72
2023/05/02 08:05:58;;;;;;;9.90;9.33;;;;;;;16.08;55.67;93228.31;5068840;28;20218;-71
2023/05/02 08:08:24;;;;;;;11.33;10.43;;;;;;;16.27;55.33;93205.22;5069434;28;20247;-71
2023/05/02 08:10:50;;;;;;;10.10;9.50;;;;;;;16.55;54.37;93243.63;5068577;28;20228;-72
2023/05/02 08:13:16;;;;;;;10.00;9.33;;;;;;;16.55;54.46;93235.72;5068843;28;20196;-72
2023/05/02 08:15:41;;;;;;;10.87;10.17;;;;;;;16.58;53.72;93227.19;5068215;28;20229;-72
2023/05/02 08:18:06;;;;;;;10.17;9.57;;;;;;;16.73;54.72;93234.72;5068868;28;20212;-71
2023/05/02 08:20:32;;;;;;;9.63;9.03;;;;;;;16.95;53.41;93242.63;5068116;28;20207;-70
2023/05/02 08:22:57;;;;;;;9.53;8.83;;;;;;;16.91;52.52;93244.34;5067821;28;20197;-71
2023/05/02 08:25:23;;;;;;;10.20;9.60;;;;;;;16.86;52.46;93241.81;5068022;28;20285;-73
2023/05/02 08:27:48;;;;;;;9.93;9.40;;;;;;;16.95;52.30;93244.50;5068626;28;20236;-71
2023/05/02 08:30:13;;;;;;;10.43;9.73;;;;;;;17.00;52.35;93244.38;5068328;28;20237;-72
2023/05/02 08:32:39;;;;;;;11.53;10.83;;;;;;;17.17;52.75;93255.00;5068869;28;20193;-71
2023/05/02 08:35:05;;;;;;;10.20;9.47;;;;;;;17.10;51.98;93249.41;5068142;28;20282;-72
2023/05/02 08:37:31;;;;;;;9.70;9.30;;;;;;;16.81;53.01;93222.72;5068786;28;20792;-72
2023/05/02 08:39:56;;;;;;;10.43;9.60;;;;;;;17.46;52.65;93248.19;5066908;28;20248;-72
2023/05/02 08:42:22;;;;;;;8.87;8.37;;;;;;;17.88;50.12;93243.38;5068466;28;20208;-72
2023/05/02 08:44:48;;;;;;;10.63;9.87;;;;;;;17.70;49.87;93239.13;5067828;28;20229;-71
2023/05/02 08:47:14;;;;;;;8.90;8.50;;;;;;;17.72;49.58;93242.22;5067779;28;20304;-73
2023/05/02 08:49:41;;;;;;;8.73;7.93;;;;;;;17.56;49.27;93210.97;5050657;28;20226;-73
2023/05/02 08:52:09;;;;;;;10.33;9.53;;;;;;;17.58;48.77;93200.91;5068356;28;20197;-71
2023/05/02 08:54:37;;;;;;;10.60;10.00;;;;;;;17.57;49.81;93232.88;5067731;28;20237;-71
2023/05/02 08:57:03;;;;;;;9.47;8.87;;;;;;;17.30;49.56;93246.25;5068260;28;20186;-71
2023/05/02 08:59:29;;;;;;;10.03;9.43;;;;;;;17.38;49.22;93233.09;5067202;28;20205;-72
2023/05/02 09:01:59;;;;;;;10.07;9.40;;;;;;;17.62;49.32;93239.88;5068273;28;20253;-73
2023/05/02 09:04:31;;;;;;;9.97;9.13;;;;;;;17.41;49.48;93229.06;5066773;28;20296;-71
2023/05/02 09:06:57;;;;;;;9.47;8.93;;;;;;;17.46;49.03;93237.63;5068932;28;20181;-74
2023/05/02 09:09:23;;;;;;;9.77;9.27;;;;;;;17.43;48.57;93182.78;5068133;28;20276;-74
2023/05/02 09:11:51;;;;;;;9.43;8.83;;;;;;;17.32;48.83;93234.28;5068692;28;20189;-74
2023/05/02 09:14:17;;;;;;;10.23;9.73;;;;;;;17.46;48.44;93221.03;5067908;28;20193;-75
2023/05/02 09:16:43;;;;;;;10.20;9.53;;;;;;;17.52;48.09;93230.38;5068073;28;20197;-74
2023/05/02 09:19:09;;;;;;;9.00;8.47;;;;;;;17.63;50.04;93206.00;5068298;28;20208;-74
2023/05/02 09:21:38;;;;;;;9.60;9.10;;;;;;;17.50;48.52;93227.25;5067528;28;20222;-77
2023/05/02 09:24:24;;;;;;;9.10;8.50;;;;;;;17.77;48.96;93205.91;5067906;28;20214;-75
2023/05/02 09:26:57;;;;;;;10.07;9.30;;;;;;;17.85;48.51;93207.00;5067361;28;20328;-75
2023/05/02 09:29:22;;;;;;;10.17;9.33;;;;;;;17.81;47.55;93221.91;5067839;28;20201;-75
2023/05/02 09:31:48;;;;;;;9.53;8.83;;;;;;;17.72;48.28;93213.97;5067861;28;20197;-75
2023/05/02 09:34:16;;;;;;;10.47;9.57;;;;;;;17.84;47.87;93210.75;5070609;28;20210;-75
2023/05/02 09:36:42;;;;;;;10.70;9.60;;;;;;;18.00;47.26;93215.28;5072055;28;20235;-76
2023/05/02 09:39:17;;;;;;;9.50;9.00;;;;;;;17.75;45.85;93170.31;5071126;28;20250;-76
2023/05/02 09:41:45;;;;;;;8.60;8.20;;;;;;;18.13;45.95;93218.88;5071494;28;20205;-75
2023/05/02 09:44:13;;;;;;;8.70;8.20;;;;;;;18.06;45.37;93203.47;5054122;28;20210;-75
2023/05/02 09:46:40;;;;;;;9.13;8.63;;;;;;;18.29;46.61;93209.41;5071174;28;20249;-75
2023/05/02 09:49:06;;;;;;;11.07;10.27;;;;;;;18.13;44.71;93206.44;5071823;28;20178;-75
2023/05/02 09:51:31;;;;;;;9.53;9.03;;;;;;;18.20;45.93;93198.81;5070909;28;20298;-74
2023/05/02 09:53:56;;;;;;;9.33;8.73;;;;;;;18.36;44.37;93183.25;5071659;28;20213;-74
2023/05/02 09:56:22;;;;;;;8.80;8.40;;;;;;;18.36;43.08;93180.63;5071125;28;20217;-75
2023/05/02 09:58:47;;;;;;;9.80;9.10;;;;;;;18.56;44.46;93203.81;5070734;28;20202;-75
2023/05/02 10:01:17;;;;;;;9.67;9.13;;;;;;;18.42;44.14;93148.47;5071290;28;20217;-75
2023/05/02 10:03:46;;;;;;;8.93;8.43;;;;;;;18.80;43.43;93206.75;5053372;28;20222;-75
2023/05/02 10:06:13;;;;;;;9.07;8.53;;;;;;;18.81;42.88;93192.41;5053453;28;20243;-73
2023/05/02 10:08:40;;;;;;;9.20;8.70;;;;;;;18.70;43.71;93181.41;5071777;28;20214;-73
2023/05/02 10:11:07;;;;;;;9.30;8.60;;;;;;;18.72;43.35;93189.78;5053259;28;20218;-73
2023/05/02 10:13:38;;;;;;;9.13;8.37;;;;;;;18.74;41.66;93186.84;5070976;28;20210;-72
2023/05/02 10:16:05;;;;;;;9.33;8.83;;;;;;;18.77;41.87;93186.22;5070401;28;20631;-72
2023/05/02 10:18:43;;;;;;;9.50;8.90;;;;;;;18.83;41.54;93179.66;5070703;28;20191;-72
2023/05/02 10:21:16;;;;;;;8.90;8.50;;;;;;;18.63;40.51;93159.94;5070451;28;20215;-71
2023/05/02 10:23:43;;;;;;;9.07;8.57;;;;;;;18.62;41.42;93139.06;5071704;28;20253;-69
2023/05/02 10:26:13;;;;;;;9.63;9.07;;;;;;;19.11;40.15;93183.47;5071752;28;20261;-71
2023/05/02 10:28:40;;;;;;;8.93;8.53;;;;;;;18.81;39.71;93187.13;5072066;28;20195;-72
2023/05/02 10:31:09;;;;;;;8.53;8.13;;;;;;;18.78;40.15;93177.97;5071808;28;20223;-74
2023/05/02 10:33:35;;;;;;;9.63;9.13;;;;;;;18.82;40.29;93180.75;5071434;28;20195;-74
2023/05/02 10:36:02;;;;;;;8.80;8.17;;;;;;;18.65;41.27;93175.47;5070758;28;20235;-74
2023/05/02 10:38:28;;;;;;;8.47;7.97;;;;;;;18.88;41.13;93163.59;5070834;28;20250;-74
2023/05/02 10:41:08;;;;;;;9.23;8.63;;;;;;;19.13;40.35;93174.13;5070974;28;20232;-74
2023/05/02 10:43:36;;;;;;;9.20;8.70;;;;;;;19.39;39.01;93170.63;5070758;28;20207;-74
2023/05/02 10:46:02;;;;;;;8.53;8.13;;;;;;;19.31;39.46;93171.44;5069576;28;20240;-74
2023/05/02 10:48:29;;;;;;;8.83;8.27;;;;;;;18.92;39.51;93152.09;5070387;28;20242;-74
2023/05/02 10:50:56;;;;;;;7.97;7.47;;;;;;;19.08;40.19;93162.94;5071597;28;20244;-75
2023/05/02 10:53:24;;;;;;;8.93;8.43;;;;;;;19.30;38.74;93162.72;5071771;28;20252;-75
2023/05/02 10:56:09;;;;;;;8.07;7.60;;;;;;;19.39;39.31;93171.41;5071599;28;20311;-74
2023/05/02 10:58:35;;;;;;;9.60;9.10;;;;;;;19.16;37.99;93152.31;5071701;28;20225;-74
2023/05/02 11:01:25;;;;;;;8.80;8.30;;;;;;;19.17;38.71;93169.72;5070972;28;20284;-74
2023/05/02 11:04:01;;;;;;;8.33;7.90;;;;;;;18.89;39.35;93165.16;5071674;28;20215;-74
2023/05/02 11:06:32;;;;;;;7.87;7.47;;;;;;;18.92;39.74;93161.91;5071236;28;20246;-74
2023/05/02 11:09:19;;;;;;;8.67;8.00;;;;;;;19.13;39.41;93168.03;5058388;28;20190;-74
2023/05/02 11:11:45;;;;;;;9.30;8.50;;;;;;;19.18;39.69;93154.63;5071258;28;20222;-74
2023/05/02 11:14:32;;;;;;;8.60;7.97;;;;;;;19.26;39.83;93161.78;5071457;28;20196;-74
2023/05/02 11:17:00;;;;;;;8.60;8.10;;;;;;;19.48;38.41;93168.72;5070996;28;20270;-74
2023/05/02 11:19:27;;;;;;;7.90;7.43;;;;;;;19.54;38.65;93164.78;5070802;28;20279;-74
2023/05/02 11:21:53;;;;;;;8.20;7.40;;;;;;;19.57;39.31;93159.63;5071356;28;20201;-75
2023/05/02 11:24:41;;;;;;;7.73;7.33;;;;;;;19.87;37.70;93160.41;5052004;28;20218;-74